sensor_id;sensor_type;location;lat;lon;timestamp;P1;durP1;ratioP1;P2;durP2;ratioP2
15077;SDS011;7638;49.760;8.646;2022-09-16T00:00:52;2.17;;;1.50;;
15077;SDS011;7638;49.760;8.646;2022-09-16T00:03:18;2.53;;;1.47;;
15077;SDS011;7638;49.760;8.646;2022-09-16T00:05:49;6.83;;;1.37;;
15077;SDS011;7638;49.760;8.646;2022-09-16T00:08:15;3.37;;;1.70;;
15077;SDS011;7638;49.760;8.646;2022-09-16T00:10:41;3.30;;;1.67;;
15077;SDS011;7638;49.760;8.646;2022-09-16T00:13:08;5.13;;;1.70;;
15077;SDS011;7638;49.760;8.646;2022-09-16T00:15:34;1.50;;;1.40;;
15077;SDS011;7638;49.760;8.646;2022-09-16T00:18:00;2.67;;;1.80;;
15077;SDS011;7638;49.760;8.646;2022-09-16T00:20:26;3.73;;;1.30;;
15077;SDS011;7638;49.760;8.646;2022-09-16T00:22:53;7.10;;;1.50;;
15077;SDS011;7638;49.760;8.646;2022-09-16T00:25:19;2.13;;;1.50;;
15077;SDS011;7638;49.760;8.646;2022-09-16T00:27:48;3.40;;;1.57;;
15077;SDS011;7638;49.760;8.646;2022-09-16T00:30:14;2.67;;;1.20;;
15077;SDS011;7638;49.760;8.646;2022-09-16T00:32:40;5.97;;;1.43;;
15077;SDS011;7638;49.760;8.646;2022-09-16T00:35:06;4.10;;;1.60;;
15077;SDS011;7638;49.760;8.646;2022-09-16T00:37:33;2.37;;;1.37;;
15077;SDS011;7638;49.760;8.646;2022-09-16T00:40:00;2.43;;;1.40;;
15077;SDS011;7638;49.760;8.646;2022-09-16T00:42:26;7.40;;;1.47;;
15077;SDS011;7638;49.760;8.646;2022-09-16T00:47:28;6.63;;;1.47;;
15077;SDS011;7638;49.760;8.646;2022-09-16T00:49:57;2.57;;;1.47;;
15077;SDS011;7638;49.760;8.646;2022-09-16T00:52:25;2.10;;;1.63;;
15077;SDS011;7638;49.760;8.646;2022-09-16T00:54:52;4.93;;;1.60;;
15077;SDS011;7638;49.760;8.646;2022-09-16T00:57:18;5.07;;;1.60;;
15077;SDS011;7638;49.760;8.646;2022-09-16T00:59:49;1.93;;;1.30;;
15077;SDS011;7638;49.760;8.646;2022-09-16T01:02:18;1.97;;;1.57;;
15077;SDS011;7638;49.760;8.646;2022-09-16T01:07:49;6.40;;;1.67;;
15077;SDS011;7638;49.760;8.646;2022-09-16T01:10:17;5.70;;;1.33;;
15077;SDS011;7638;49.760;8.646;2022-09-16T01:12:44;4.23;;;1.50;;
15077;SDS011;7638;49.760;8.646;2022-09-16T01:15:11;2.60;;;1.40;;
15077;SDS011;7638;49.760;8.646;2022-09-16T01:23:19;2.77;;;1.30;;
15077;SDS011;7638;49.760;8.646;2022-09-16T01:31:04;2.70;;;1.70;;
15077;SDS011;7638;49.760;8.646;2022-09-16T01:36:02;4.07;;;1.40;;
15077;SDS011;7638;49.760;8.646;2022-09-16T01:41:12;7.40;;;1.20;;
15077;SDS011;7638;49.760;8.646;2022-09-16T01:43:44;2.83;;;1.33;;
15077;SDS011;7638;49.760;8.646;2022-09-16T01:48:43;2.13;;;1.40;;
15077;SDS011;7638;49.760;8.646;2022-09-16T01:51:22;2.30;;;1.60;;
15077;SDS011;7638;49.760;8.646;2022-09-16T01:54:07;5.00;;;1.73;;
15077;SDS011;7638;49.760;8.646;2022-09-16T01:56:40;3.40;;;1.30;;
15077;SDS011;7638;49.760;8.646;2022-09-16T01:59:17;2.93;;;1.33;;
15077;SDS011;7638;49.760;8.646;2022-09-16T02:01:47;2.53;;;1.40;;
15077;SDS011;7638;49.760;8.646;2022-09-16T02:04:20;4.43;;;1.67;;
15077;SDS011;7638;49.760;8.646;2022-09-16T02:06:46;2.93;;;1.30;;
15077;SDS011;7638;49.760;8.646;2022-09-16T02:09:19;4.00;;;1.20;;
15077;SDS011;7638;49.760;8.646;2022-09-16T02:11:46;6.63;;;1.30;;
15077;SDS011;7638;49.760;8.646;2022-09-16T02:14:22;2.77;;;1.80;;
15077;SDS011;7638;49.760;8.646;2022-09-16T02:19:17;1.40;;;1.30;;
15077;SDS011;7638;49.760;8.646;2022-09-16T02:21:45;7.17;;;1.27;;
15077;SDS011;7638;49.760;8.646;2022-09-16T02:24:16;3.83;;;1.40;;
15077;SDS011;7638;49.760;8.646;2022-09-16T02:26:43;3.20;;;1.27;;
15077;SDS011;7638;49.760;8.646;2022-09-16T02:29:12;3.57;;;1.80;;
15077;SDS011;7638;49.760;8.646;2022-09-16T02:31:39;1.67;;;1.20;;
15077;SDS011;7638;49.760;8.646;2022-09-16T02:34:07;1.20;;;1.10;;
15077;SDS011;7638;49.760;8.646;2022-09-16T02:36:36;1.77;;;1.37;;
15077;SDS011;7638;49.760;8.646;2022-09-16T02:39:06;2.03;;;1.30;;
15077;SDS011;7638;49.760;8.646;2022-09-16T02:41:33;2.97;;;1.23;;
15077;SDS011;7638;49.760;8.646;2022-09-16T02:44:00;2.20;;;1.40;;
15077;SDS011;7638;49.760;8.646;2022-09-16T02:52:05;4.20;;;1.80;;
15077;SDS011;7638;49.760;8.646;2022-09-16T02:54:41;2.63;;;1.47;;
15077;SDS011;7638;49.760;8.646;2022-09-16T02:57:10;2.57;;;1.10;;
15077;SDS011;7638;49.760;8.646;2022-09-16T02:59:36;2.33;;;1.20;;
15077;SDS011;7638;49.760;8.646;2022-09-16T03:02:03;2.07;;;1.40;;
15077;SDS011;7638;49.760;8.646;2022-09-16T03:04:29;2.67;;;1.27;;
15077;SDS011;7638;49.760;8.646;2022-09-16T03:06:55;6.43;;;1.27;;
15077;SDS011;7638;49.760;8.646;2022-09-16T03:09:21;6.13;;;2.00;;
15077;SDS011;7638;49.760;8.646;2022-09-16T03:22:04;1.93;;;1.40;;
15077;SDS011;7638;49.760;8.646;2022-09-16T03:24:40;2.03;;;1.23;;
15077;SDS011;7638;49.760;8.646;2022-09-16T03:27:21;4.57;;;1.30;;
15077;SDS011;7638;49.760;8.646;2022-09-16T03:29:54;2.57;;;1.00;;
15077;SDS011;7638;49.760;8.646;2022-09-16T03:32:23;3.03;;;1.13;;
15077;SDS011;7638;49.760;8.646;2022-09-16T03:35:10;3.73;;;1.20;;
15077;SDS011;7638;49.760;8.646;2022-09-16T03:37:36;1.30;;;1.20;;
15077;SDS011;7638;49.760;8.646;2022-09-16T03:40:06;6.30;;;1.17;;
15077;SDS011;7638;49.760;8.646;2022-09-16T03:42:33;2.30;;;1.23;;
15077;SDS011;7638;49.760;8.646;2022-09-16T03:44:59;5.43;;;1.40;;
15077;SDS011;7638;49.760;8.646;2022-09-16T03:47:25;2.90;;;1.20;;
15077;SDS011;7638;49.760;8.646;2022-09-16T03:49:51;2.77;;;0.93;;
15077;SDS011;7638;49.760;8.646;2022-09-16T03:52:17;5.07;;;1.10;;
15077;SDS011;7638;49.760;8.646;2022-09-16T03:54:43;2.97;;;1.00;;
15077;SDS011;7638;49.760;8.646;2022-09-16T03:57:10;5.20;;;1.40;;
15077;SDS011;7638;49.760;8.646;2022-09-16T03:59:36;3.70;;;1.17;;
15077;SDS011;7638;49.760;8.646;2022-09-16T04:02:02;2.00;;;0.80;;
15077;SDS011;7638;49.760;8.646;2022-09-16T04:04:28;4.63;;;2.07;;
15077;SDS011;7638;49.760;8.646;2022-09-16T04:06:54;3.90;;;1.20;;
15077;SDS011;7638;49.760;8.646;2022-09-16T04:09:20;3.00;;;1.33;;
15077;SDS011;7638;49.760;8.646;2022-09-16T04:11:46;2.93;;;1.13;;
15077;SDS011;7638;49.760;8.646;2022-09-16T04:14:12;1.70;;;1.20;;
15077;SDS011;7638;49.760;8.646;2022-09-16T04:16:38;1.70;;;0.97;;
15077;SDS011;7638;49.760;8.646;2022-09-16T04:19:04;2.43;;;0.90;;
15077;SDS011;7638;49.760;8.646;2022-09-16T04:21:31;1.67;;;1.10;;
15077;SDS011;7638;49.760;8.646;2022-09-16T04:23:57;4.63;;;1.57;;
15077;SDS011;7638;49.760;8.646;2022-09-16T04:26:23;4.67;;;1.43;;
15077;SDS011;7638;49.760;8.646;2022-09-16T04:28:51;3.67;;;1.00;;
15077;SDS011;7638;49.760;8.646;2022-09-16T04:31:18;4.73;;;1.67;;
15077;SDS011;7638;49.760;8.646;2022-09-16T04:33:44;6.57;;;2.70;;
15077;SDS011;7638;49.760;8.646;2022-09-16T04:36:11;3.80;;;1.20;;
15077;SDS011;7638;49.760;8.646;2022-09-16T04:38:37;3.30;;;1.27;;
15077;SDS011;7638;49.760;8.646;2022-09-16T04:41:04;5.03;;;0.90;;
15077;SDS011;7638;49.760;8.646;2022-09-16T04:43:30;3.73;;;1.20;;
15077;SDS011;7638;49.760;8.646;2022-09-16T04:45:56;4.17;;;1.60;;
15077;SDS011;7638;49.760;8.646;2022-09-16T04:48:22;3.43;;;1.37;;
15077;SDS011;7638;49.760;8.646;2022-09-16T04:50:49;3.10;;;2.47;;
15077;SDS011;7638;49.760;8.646;2022-09-16T04:53:16;3.33;;;1.80;;
15077;SDS011;7638;49.760;8.646;2022-09-16T04:55:42;3.03;;;1.53;;
15077;SDS011;7638;49.760;8.646;2022-09-16T04:58:08;3.37;;;1.20;;
15077;SDS011;7638;49.760;8.646;2022-09-16T05:00:34;4.40;;;1.30;;
15077;SDS011;7638;49.760;8.646;2022-09-16T05:03:00;3.23;;;1.33;;
15077;SDS011;7638;49.760;8.646;2022-09-16T05:05:26;2.97;;;1.30;;
15077;SDS011;7638;49.760;8.646;2022-09-16T05:07:52;3.17;;;1.30;;
15077;SDS011;7638;49.760;8.646;2022-09-16T05:10:18;10.87;;;1.60;;
15077;SDS011;7638;49.760;8.646;2022-09-16T05:12:49;5.23;;;1.17;;
15077;SDS011;7638;49.760;8.646;2022-09-16T05:15:14;3.73;;;1.10;;
15077;SDS011;7638;49.760;8.646;2022-09-16T05:17:40;2.20;;;1.20;;
15077;SDS011;7638;49.760;8.646;2022-09-16T05:20:06;3.20;;;1.00;;
15077;SDS011;7638;49.760;8.646;2022-09-16T05:22:33;5.17;;;1.30;;
15077;SDS011;7638;49.760;8.646;2022-09-16T05:24:59;3.80;;;1.17;;
15077;SDS011;7638;49.760;8.646;2022-09-16T05:27:25;3.73;;;1.33;;
15077;SDS011;7638;49.760;8.646;2022-09-16T05:29:53;6.30;;;1.50;;
15077;SDS011;7638;49.760;8.646;2022-09-16T05:32:19;3.33;;;1.10;;
15077;SDS011;7638;49.760;8.646;2022-09-16T05:34:45;12.77;;;1.87;;
15077;SDS011;7638;49.760;8.646;2022-09-16T05:37:12;5.70;;;1.50;;
15077;SDS011;7638;49.760;8.646;2022-09-16T05:39:38;3.70;;;1.50;;
15077;SDS011;7638;49.760;8.646;2022-09-16T05:42:04;3.83;;;1.00;;
15077;SDS011;7638;49.760;8.646;2022-09-16T05:44:30;2.43;;;1.10;;
15077;SDS011;7638;49.760;8.646;2022-09-16T05:46:56;4.47;;;1.20;;
15077;SDS011;7638;49.760;8.646;2022-09-16T05:49:22;4.67;;;1.33;;
15077;SDS011;7638;49.760;8.646;2022-09-16T05:51:48;4.53;;;1.20;;
15077;SDS011;7638;49.760;8.646;2022-09-16T05:54:15;4.37;;;1.37;;
15077;SDS011;7638;49.760;8.646;2022-09-16T05:56:42;1.67;;;1.37;;
15077;SDS011;7638;49.760;8.646;2022-09-16T05:59:09;3.43;;;1.70;;
15077;SDS011;7638;49.760;8.646;2022-09-16T06:01:36;5.77;;;1.57;;
15077;SDS011;7638;49.760;8.646;2022-09-16T06:04:03;6.33;;;1.70;;
15077;SDS011;7638;49.760;8.646;2022-09-16T06:06:36;3.77;;;1.60;;
15077;SDS011;7638;49.760;8.646;2022-09-16T06:09:05;7.57;;;1.70;;
15077;SDS011;7638;49.760;8.646;2022-09-16T06:11:34;4.67;;;1.53;;
15077;SDS011;7638;49.760;8.646;2022-09-16T06:14:00;2.80;;;1.40;;
15077;SDS011;7638;49.760;8.646;2022-09-16T06:16:27;11.57;;;2.57;;
15077;SDS011;7638;49.760;8.646;2022-09-16T06:18:56;8.33;;;1.80;;
15077;SDS011;7638;49.760;8.646;2022-09-16T06:21:22;2.03;;;1.67;;
15077;SDS011;7638;49.760;8.646;2022-09-16T06:23:49;6.63;;;1.60;;
15077;SDS011;7638;49.760;8.646;2022-09-16T06:26:16;4.47;;;1.60;;
15077;SDS011;7638;49.760;8.646;2022-09-16T06:28:42;5.50;;;1.53;;
15077;SDS011;7638;49.760;8.646;2022-09-16T06:31:10;5.90;;;1.73;;
15077;SDS011;7638;49.760;8.646;2022-09-16T06:33:37;4.03;;;1.57;;
15077;SDS011;7638;49.760;8.646;2022-09-16T06:36:07;4.83;;;2.00;;
15077;SDS011;7638;49.760;8.646;2022-09-16T06:38:33;4.43;;;1.53;;
15077;SDS011;7638;49.760;8.646;2022-09-16T06:41:00;3.83;;;1.50;;
15077;SDS011;7638;49.760;8.646;2022-09-16T06:43:27;3.53;;;1.40;;
15077;SDS011;7638;49.760;8.646;2022-09-16T06:45:57;5.00;;;1.57;;
15077;SDS011;7638;49.760;8.646;2022-09-16T06:48:23;3.63;;;1.77;;
15077;SDS011;7638;49.760;8.646;2022-09-16T06:50:56;5.63;;;1.67;;
15077;SDS011;7638;49.760;8.646;2022-09-16T06:53:22;2.53;;;1.50;;
15077;SDS011;7638;49.760;8.646;2022-09-16T06:55:48;5.10;;;1.70;;
15077;SDS011;7638;49.760;8.646;2022-09-16T06:58:14;3.33;;;1.50;;
15077;SDS011;7638;49.760;8.646;2022-09-16T07:00:40;2.57;;;1.97;;
15077;SDS011;7638;49.760;8.646;2022-09-16T07:03:07;4.20;;;2.07;;
15077;SDS011;7638;49.760;8.646;2022-09-16T07:05:32;5.00;;;1.73;;
15077;SDS011;7638;49.760;8.646;2022-09-16T07:07:59;2.60;;;1.43;;
15077;SDS011;7638;49.760;8.646;2022-09-16T07:10:25;3.23;;;1.47;;
15077;SDS011;7638;49.760;8.646;2022-09-16T07:12:51;4.37;;;1.27;;
15077;SDS011;7638;49.760;8.646;2022-09-16T07:15:17;4.67;;;1.50;;
15077;SDS011;7638;49.760;8.646;2022-09-16T07:17:43;3.37;;;1.73;;
15077;SDS011;7638;49.760;8.646;2022-09-16T07:20:09;6.53;;;1.40;;
15077;SDS011;7638;49.760;8.646;2022-09-16T07:22:35;10.30;;;1.67;;
15077;SDS011;7638;49.760;8.646;2022-09-16T07:25:01;2.23;;;1.17;;
15077;SDS011;7638;49.760;8.646;2022-09-16T07:27:27;1.53;;;1.13;;
15077;SDS011;7638;49.760;8.646;2022-09-16T07:29:55;3.30;;;1.43;;
15077;SDS011;7638;49.760;8.646;2022-09-16T07:32:21;3.13;;;1.60;;
15077;SDS011;7638;49.760;8.646;2022-09-16T07:34:47;3.07;;;1.30;;
15077;SDS011;7638;49.760;8.646;2022-09-16T07:37:13;2.07;;;1.37;;
15077;SDS011;7638;49.760;8.646;2022-09-16T07:39:39;8.30;;;1.30;;
15077;SDS011;7638;49.760;8.646;2022-09-16T07:42:05;4.93;;;1.30;;
15077;SDS011;7638;49.760;8.646;2022-09-16T07:44:31;5.60;;;1.53;;
15077;SDS011;7638;49.760;8.646;2022-09-16T07:46:57;3.03;;;1.40;;
15077;SDS011;7638;49.760;8.646;2022-09-16T07:49:23;2.27;;;1.13;;
15077;SDS011;7638;49.760;8.646;2022-09-16T07:51:49;2.40;;;1.23;;
15077;SDS011;7638;49.760;8.646;2022-09-16T07:54:16;7.53;;;1.47;;
15077;SDS011;7638;49.760;8.646;2022-09-16T07:56:42;5.20;;;1.17;;
15077;SDS011;7638;49.760;8.646;2022-09-16T07:59:10;3.07;;;1.10;;
15077;SDS011;7638;49.760;8.646;2022-09-16T08:01:36;4.37;;;1.23;;
15077;SDS011;7638;49.760;8.646;2022-09-16T08:04:03;2.07;;;1.33;;
15077;SDS011;7638;49.760;8.646;2022-09-16T08:06:29;4.00;;;1.20;;
15077;SDS011;7638;49.760;8.646;2022-09-16T08:08:56;4.43;;;1.30;;
15077;SDS011;7638;49.760;8.646;2022-09-16T08:11:23;1.80;;;1.07;;
15077;SDS011;7638;49.760;8.646;2022-09-16T08:13:50;4.57;;;1.50;;
15077;SDS011;7638;49.760;8.646;2022-09-16T08:16:17;7.13;;;1.73;;
15077;SDS011;7638;49.760;8.646;2022-09-16T08:18:44;3.23;;;1.00;;
15077;SDS011;7638;49.760;8.646;2022-09-16T08:21:11;4.80;;;1.20;;
15077;SDS011;7638;49.760;8.646;2022-09-16T08:23:38;5.43;;;1.57;;
15077;SDS011;7638;49.760;8.646;2022-09-16T08:26:05;6.17;;;1.40;;
15077;SDS011;7638;49.760;8.646;2022-09-16T08:28:32;3.47;;;1.30;;
15077;SDS011;7638;49.760;8.646;2022-09-16T08:30:59;3.23;;;1.00;;
15077;SDS011;7638;49.760;8.646;2022-09-16T08:33:25;3.60;;;1.40;;
15077;SDS011;7638;49.760;8.646;2022-09-16T08:38:23;5.00;;;1.37;;
15077;SDS011;7638;49.760;8.646;2022-09-16T08:40:49;1.87;;;1.00;;
15077;SDS011;7638;49.760;8.646;2022-09-16T08:43:26;2.13;;;1.23;;
15077;SDS011;7638;49.760;8.646;2022-09-16T08:48:40;7.37;;;1.13;;
15077;SDS011;7638;49.760;8.646;2022-09-16T08:51:08;3.23;;;1.10;;
15077;SDS011;7638;49.760;8.646;2022-09-16T08:53:39;6.27;;;1.20;;
15077;SDS011;7638;49.760;8.646;2022-09-16T08:56:09;4.60;;;1.10;;
15077;SDS011;7638;49.760;8.646;2022-09-16T08:58:44;4.33;;;1.13;;
15077;SDS011;7638;49.760;8.646;2022-09-16T09:03:57;2.07;;;1.07;;
15077;SDS011;7638;49.760;8.646;2022-09-16T09:11:57;3.53;;;1.30;;
15077;SDS011;7638;49.760;8.646;2022-09-16T09:24:35;1.73;;;0.80;;
15077;SDS011;7638;49.760;8.646;2022-09-16T09:27:16;2.83;;;0.90;;
15077;SDS011;7638;49.760;8.646;2022-09-16T09:29:50;1.27;;;0.80;;
15077;SDS011;7638;49.760;8.646;2022-09-16T09:40:28;6.40;;;1.07;;
15077;SDS011;7638;49.760;8.646;2022-09-16T09:45:04;2.37;;;1.27;;
15077;SDS011;7638;49.760;8.646;2022-09-16T09:47:42;4.37;;;1.10;;
15077;SDS011;7638;49.760;8.646;2022-09-16T09:55:21;3.27;;;1.20;;
15077;SDS011;7638;49.760;8.646;2022-09-16T09:57:54;1.23;;;1.13;;
15077;SDS011;7638;49.760;8.646;2022-09-16T10:00:22;5.63;;;1.30;;
15077;SDS011;7638;49.760;8.646;2022-09-16T10:02:48;3.50;;;1.10;;
15077;SDS011;7638;49.760;8.646;2022-09-16T10:05:22;2.80;;;0.87;;
15077;SDS011;7638;49.760;8.646;2022-09-16T10:07:48;3.60;;;1.20;;
15077;SDS011;7638;49.760;8.646;2022-09-16T10:10:18;2.43;;;1.27;;
15077;SDS011;7638;49.760;8.646;2022-09-16T10:12:45;3.80;;;1.10;;
15077;SDS011;7638;49.760;8.646;2022-09-16T10:15:44;6.20;;;1.10;;
15077;SDS011;7638;49.760;8.646;2022-09-16T10:18:23;2.87;;;1.10;;
15077;SDS011;7638;49.760;8.646;2022-09-16T10:21:09;2.73;;;1.00;;
15077;SDS011;7638;49.760;8.646;2022-09-16T10:23:35;1.50;;;1.10;;
15077;SDS011;7638;49.760;8.646;2022-09-16T10:28:32;3.33;;;1.30;;
15077;SDS011;7638;49.760;8.646;2022-09-16T10:30:59;5.63;;;1.33;;
15077;SDS011;7638;49.760;8.646;2022-09-16T10:33:41;3.60;;;1.63;;
15077;SDS011;7638;49.760;8.646;2022-09-16T10:36:09;2.43;;;1.30;;
15077;SDS011;7638;49.760;8.646;2022-09-16T10:38:36;3.43;;;0.90;;
15077;SDS011;7638;49.760;8.646;2022-09-16T10:41:07;2.67;;;0.80;;
15077;SDS011;7638;49.760;8.646;2022-09-16T10:43:35;2.37;;;1.10;;
15077;SDS011;7638;49.760;8.646;2022-09-16T10:46:01;1.37;;;0.70;;
15077;SDS011;7638;49.760;8.646;2022-09-16T10:48:28;5.10;;;1.03;;
15077;SDS011;7638;49.760;8.646;2022-09-16T10:50:59;6.50;;;1.17;;
15077;SDS011;7638;49.760;8.646;2022-09-16T10:55:59;3.47;;;1.03;;
15077;SDS011;7638;49.760;8.646;2022-09-16T10:58:26;6.17;;;1.40;;
15077;SDS011;7638;49.760;8.646;2022-09-16T11:03:34;2.90;;;0.73;;
15077;SDS011;7638;49.760;8.646;2022-09-16T11:15:09;2.67;;;1.00;;
15077;SDS011;7638;49.760;8.646;2022-09-16T11:17:24;2.10;;;0.80;;
15077;SDS011;7638;49.760;8.646;2022-09-16T11:30:03;2.13;;;1.00;;
15077;SDS011;7638;49.760;8.646;2022-09-16T11:37:52;1.43;;;0.90;;
15077;SDS011;7638;49.760;8.646;2022-09-16T11:45:38;1.53;;;1.00;;
15077;SDS011;7638;49.760;8.646;2022-09-16T11:50:54;2.53;;;0.70;;
15077;SDS011;7638;49.760;8.646;2022-09-16T11:53:36;2.87;;;1.17;;
15077;SDS011;7638;49.760;8.646;2022-09-16T11:56:10;1.97;;;1.03;;
15077;SDS011;7638;49.760;8.646;2022-09-16T12:01:08;2.10;;;0.73;;
15077;SDS011;7638;49.760;8.646;2022-09-16T12:03:38;3.23;;;0.90;;
15077;SDS011;7638;49.760;8.646;2022-09-16T12:06:13;1.70;;;0.87;;
15077;SDS011;7638;49.760;8.646;2022-09-16T12:08:43;1.23;;;0.80;;
15077;SDS011;7638;49.760;8.646;2022-09-16T12:13:53;4.00;;;0.70;;
15077;SDS011;7638;49.760;8.646;2022-09-16T12:16:28;1.10;;;0.80;;
15077;SDS011;7638;49.760;8.646;2022-09-16T12:18:57;3.20;;;0.70;;
15077;SDS011;7638;49.760;8.646;2022-09-16T12:21:34;6.97;;;0.97;;
15077;SDS011;7638;49.760;8.646;2022-09-16T12:24:03;2.77;;;1.70;;
15077;SDS011;7638;49.760;8.646;2022-09-16T12:26:35;2.23;;;0.90;;
15077;SDS011;7638;49.760;8.646;2022-09-16T12:31:52;3.37;;;0.80;;
15077;SDS011;7638;49.760;8.646;2022-09-16T12:34:24;1.47;;;0.87;;
15077;SDS011;7638;49.760;8.646;2022-09-16T12:36:54;1.50;;;0.80;;
15077;SDS011;7638;49.760;8.646;2022-09-16T12:39:22;1.23;;;0.70;;
15077;SDS011;7638;49.760;8.646;2022-09-16T12:54:37;0.67;;;0.67;;
15077;SDS011;7638;49.760;8.646;2022-09-16T12:57:12;1.23;;;0.60;;
15077;SDS011;7638;49.760;8.646;2022-09-16T13:02:14;0.87;;;0.53;;
15077;SDS011;7638;49.760;8.646;2022-09-16T13:04:42;1.17;;;0.53;;
15077;SDS011;7638;49.760;8.646;2022-09-16T13:07:46;0.70;;;0.70;;
15077;SDS011;7638;49.760;8.646;2022-09-16T13:10:03;2.90;;;0.70;;
15077;SDS011;7638;49.760;8.646;2022-09-16T13:12:30;0.77;;;0.60;;
15077;SDS011;7638;49.760;8.646;2022-09-16T13:15:00;0.40;;;0.40;;
15077;SDS011;7638;49.760;8.646;2022-09-16T13:17:32;3.10;;;0.80;;
15077;SDS011;7638;49.760;8.646;2022-09-16T13:20:10;3.33;;;0.67;;
15077;SDS011;7638;49.760;8.646;2022-09-16T13:22:45;3.23;;;0.60;;
15077;SDS011;7638;49.760;8.646;2022-09-16T13:25:28;2.17;;;0.60;;
15077;SDS011;7638;49.760;8.646;2022-09-16T13:28:01;1.93;;;0.70;;
15077;SDS011;7638;49.760;8.646;2022-09-16T13:33:42;2.03;;;0.73;;
15077;SDS011;7638;49.760;8.646;2022-09-16T13:35:44;1.57;;;0.67;;
15077;SDS011;7638;49.760;8.646;2022-09-16T13:40:39;0.70;;;0.50;;
15077;SDS011;7638;49.760;8.646;2022-09-16T13:45:35;0.80;;;0.70;;
15077;SDS011;7638;49.760;8.646;2022-09-16T13:48:08;0.53;;;0.53;;
15077;SDS011;7638;49.760;8.646;2022-09-16T13:50:36;1.90;;;0.50;;
15077;SDS011;7638;49.760;8.646;2022-09-16T13:53:08;1.53;;;0.70;;
15077;SDS011;7638;49.760;8.646;2022-09-16T13:55:34;0.67;;;0.60;;
15077;SDS011;7638;49.760;8.646;2022-09-16T13:58:08;0.63;;;0.63;;
15077;SDS011;7638;49.760;8.646;2022-09-16T14:03:18;1.40;;;0.63;;
15077;SDS011;7638;49.760;8.646;2022-09-16T14:13:47;1.43;;;0.63;;
15077;SDS011;7638;49.760;8.646;2022-09-16T14:16:18;3.67;;;1.00;;
15077;SDS011;7638;49.760;8.646;2022-09-16T14:18:52;5.43;;;0.63;;
15077;SDS011;7638;49.760;8.646;2022-09-16T14:21:20;1.70;;;1.50;;
15077;SDS011;7638;49.760;8.646;2022-09-16T14:23:46;0.50;;;0.50;;
15077;SDS011;7638;49.760;8.646;2022-09-16T14:26:13;0.77;;;0.57;;
15077;SDS011;7638;49.760;8.646;2022-09-16T14:28:40;0.90;;;0.70;;
15077;SDS011;7638;49.760;8.646;2022-09-16T14:31:07;0.50;;;0.50;;
15077;SDS011;7638;49.760;8.646;2022-09-16T14:33:37;1.27;;;0.70;;
15077;SDS011;7638;49.760;8.646;2022-09-16T14:36:13;0.50;;;0.30;;
15077;SDS011;7638;49.760;8.646;2022-09-16T14:38:44;1.73;;;0.90;;
15077;SDS011;7638;49.760;8.646;2022-09-16T14:41:16;0.50;;;0.50;;
15077;SDS011;7638;49.760;8.646;2022-09-16T14:43:44;0.60;;;0.60;;
15077;SDS011;7638;49.760;8.646;2022-09-16T14:46:10;2.57;;;1.73;;
15077;SDS011;7638;49.760;8.646;2022-09-16T14:48:36;0.73;;;0.50;;
15077;SDS011;7638;49.760;8.646;2022-09-16T14:51:07;1.00;;;0.50;;
15077;SDS011;7638;49.760;8.646;2022-09-16T14:53:37;0.87;;;0.50;;
15077;SDS011;7638;49.760;8.646;2022-09-16T14:56:03;0.37;;;0.37;;
15077;SDS011;7638;49.760;8.646;2022-09-16T14:58:30;0.40;;;0.40;;
15077;SDS011;7638;49.760;8.646;2022-09-16T15:05:55;1.03;;;0.57;;
15077;SDS011;7638;49.760;8.646;2022-09-16T15:08:25;0.60;;;0.40;;
15077;SDS011;7638;49.760;8.646;2022-09-16T15:10:53;0.87;;;0.53;;
15077;SDS011;7638;49.760;8.646;2022-09-16T15:13:22;0.40;;;0.40;;
15077;SDS011;7638;49.760;8.646;2022-09-16T15:15:53;0.40;;;0.40;;
15077;SDS011;7638;49.760;8.646;2022-09-16T15:18:21;3.53;;;1.13;;
15077;SDS011;7638;49.760;8.646;2022-09-16T15:20:49;0.70;;;0.70;;
15077;SDS011;7638;49.760;8.646;2022-09-16T15:23:21;1.80;;;0.60;;
15077;SDS011;7638;49.760;8.646;2022-09-16T15:25:52;3.33;;;0.70;;
15077;SDS011;7638;49.760;8.646;2022-09-16T15:28:19;2.23;;;0.50;;
15077;SDS011;7638;49.760;8.646;2022-09-16T15:30:46;1.20;;;0.57;;
15077;SDS011;7638;49.760;8.646;2022-09-16T15:35:47;2.50;;;0.60;;
15077;SDS011;7638;49.760;8.646;2022-09-16T15:38:19;0.40;;;0.40;;
15077;SDS011;7638;49.760;8.646;2022-09-16T15:40:45;0.50;;;0.50;;
15077;SDS011;7638;49.760;8.646;2022-09-16T15:43:13;0.30;;;0.30;;
15077;SDS011;7638;49.760;8.646;2022-09-16T15:45:40;2.73;;;0.50;;
15077;SDS011;7638;49.760;8.646;2022-09-16T15:48:17;0.50;;;0.50;;
15077;SDS011;7638;49.760;8.646;2022-09-16T15:53:11;0.30;;;0.30;;
15077;SDS011;7638;49.760;8.646;2022-09-16T15:55:43;0.40;;;0.40;;
15077;SDS011;7638;49.760;8.646;2022-09-16T15:58:23;0.90;;;0.50;;
15077;SDS011;7638;49.760;8.646;2022-09-16T16:01:01;0.50;;;0.50;;
15077;SDS011;7638;49.760;8.646;2022-09-16T16:03:29;0.43;;;0.43;;
15077;SDS011;7638;49.760;8.646;2022-09-16T16:05:56;0.67;;;0.67;;
15077;SDS011;7638;49.760;8.646;2022-09-16T16:11:08;2.67;;;0.70;;
15077;SDS011;7638;49.760;8.646;2022-09-16T16:13:35;1.23;;;0.60;;
15077;SDS011;7638;49.760;8.646;2022-09-16T16:16:02;0.70;;;0.60;;
15077;SDS011;7638;49.760;8.646;2022-09-16T16:18:29;0.50;;;0.50;;
15077;SDS011;7638;49.760;8.646;2022-09-16T16:21:03;1.53;;;0.60;;
15077;SDS011;7638;49.760;8.646;2022-09-16T16:23:29;2.10;;;0.90;;
15077;SDS011;7638;49.760;8.646;2022-09-16T16:25:55;2.00;;;0.80;;
15077;SDS011;7638;49.760;8.646;2022-09-16T16:28:21;0.80;;;0.70;;
15077;SDS011;7638;49.760;8.646;2022-09-16T16:30:47;0.47;;;0.47;;
15077;SDS011;7638;49.760;8.646;2022-09-16T16:33:13;2.10;;;1.17;;
15077;SDS011;7638;49.760;8.646;2022-09-16T16:35:39;2.40;;;0.50;;
15077;SDS011;7638;49.760;8.646;2022-09-16T16:38:05;3.77;;;0.67;;
15077;SDS011;7638;49.760;8.646;2022-09-16T16:40:31;0.83;;;0.37;;
15077;SDS011;7638;49.760;8.646;2022-09-16T16:42:57;0.70;;;0.40;;
15077;SDS011;7638;49.760;8.646;2022-09-16T16:45:23;0.40;;;0.40;;
15077;SDS011;7638;49.760;8.646;2022-09-16T16:47:49;0.30;;;0.30;;
15077;SDS011;7638;49.760;8.646;2022-09-16T16:50:15;0.30;;;0.30;;
15077;SDS011;7638;49.760;8.646;2022-09-16T16:52:41;0.50;;;0.50;;
15077;SDS011;7638;49.760;8.646;2022-09-16T16:55:07;1.10;;;0.53;;
15077;SDS011;7638;49.760;8.646;2022-09-16T16:57:34;2.67;;;0.60;;
15077;SDS011;7638;49.760;8.646;2022-09-16T17:00:00;0.30;;;0.30;;
15077;SDS011;7638;49.760;8.646;2022-09-16T17:02:26;1.43;;;0.90;;
15077;SDS011;7638;49.760;8.646;2022-09-16T17:04:52;1.63;;;0.60;;
15077;SDS011;7638;49.760;8.646;2022-09-16T17:07:18;1.60;;;0.93;;
15077;SDS011;7638;49.760;8.646;2022-09-16T17:09:44;1.43;;;0.73;;
15077;SDS011;7638;49.760;8.646;2022-09-16T17:12:10;1.50;;;0.97;;
15077;SDS011;7638;49.760;8.646;2022-09-16T17:14:36;0.87;;;0.70;;
15077;SDS011;7638;49.760;8.646;2022-09-16T17:17:02;0.70;;;0.70;;
15077;SDS011;7638;49.760;8.646;2022-09-16T17:19:28;0.73;;;0.60;;
15077;SDS011;7638;49.760;8.646;2022-09-16T17:21:56;0.20;;;0.20;;
15077;SDS011;7638;49.760;8.646;2022-09-16T17:24:22;0.50;;;0.50;;
15077;SDS011;7638;49.760;8.646;2022-09-16T17:26:48;0.97;;;0.60;;
15077;SDS011;7638;49.760;8.646;2022-09-16T17:29:14;1.00;;;0.60;;
15077;SDS011;7638;49.760;8.646;2022-09-16T17:31:40;1.27;;;0.67;;
15077;SDS011;7638;49.760;8.646;2022-09-16T17:34:07;0.90;;;0.77;;
15077;SDS011;7638;49.760;8.646;2022-09-16T17:36:35;0.43;;;0.40;;
15077;SDS011;7638;49.760;8.646;2022-09-16T17:39:03;0.70;;;0.70;;
15077;SDS011;7638;49.760;8.646;2022-09-16T17:41:29;0.67;;;0.50;;
15077;SDS011;7638;49.760;8.646;2022-09-16T17:43:55;0.33;;;0.33;;
15077;SDS011;7638;49.760;8.646;2022-09-16T17:46:22;1.37;;;0.50;;
15077;SDS011;7638;49.760;8.646;2022-09-16T17:48:51;0.50;;;0.50;;
15077;SDS011;7638;49.760;8.646;2022-09-16T17:51:17;4.13;;;0.50;;
15077;SDS011;7638;49.760;8.646;2022-09-16T17:53:44;2.53;;;0.63;;
15077;SDS011;7638;49.760;8.646;2022-09-16T17:56:11;1.07;;;0.60;;
15077;SDS011;7638;49.760;8.646;2022-09-16T17:58:38;1.17;;;0.50;;
15077;SDS011;7638;49.760;8.646;2022-09-16T18:01:05;0.20;;;0.20;;
15077;SDS011;7638;49.760;8.646;2022-09-16T18:03:32;0.90;;;0.60;;